Weather Data

Pearl Creek Farm: 8878 N Farm Road 75, Walnut Grove MO 65770

<== Previous Day (Sunday 20 Aug 2017) | Next Day (Tuesday 22 Aug 2017) ==>

Summary Precipitation Data For Monday 21 August 2017

ElementValueUnits
Precipitation0"
NotesAny precipitation for this day was included with a multiple-day report on 22 August 2017.
SourcePearl Creek Farm

Summary Temperature Data For Monday 21 August 2017

ElementValueUnits
High Temperature88 oF
Low Temperature71 oF
Average Temperature80 oF
High Humidity100 %
Low Humidity61 %
Average Humidity82 %
SourceSpringfield-Branson National Airport (SGF)

Detail Temperature Data For Monday 21 August 2017

Date / TimeTemp (F)RH (%)Dew Pt (F)Report Date / TimeSource
2017-08-21 00:52:00 71 96 70.0 2017-12-29 17:00:26.17417 Springfield-Branson National Airport (SGF)
2017-08-21 01:52:00 71 96 70.0 2017-12-29 17:00:26.17417 Springfield-Branson National Airport (SGF)
2017-08-21 02:52:00 71 96 70.0 2017-12-29 17:00:26.17417 Springfield-Branson National Airport (SGF)
2017-08-21 03:52:00 71 100 71.0 2017-12-29 17:00:26.17417 Springfield-Branson National Airport (SGF)
2017-08-21 04:52:00 71 100 71.0 2017-12-29 17:00:26.17417 Springfield-Branson National Airport (SGF)
2017-08-21 05:52:00 72 100 72.0 2017-12-29 17:00:26.17417 Springfield-Branson National Airport (SGF)
2017-08-21 06:52:00 75 96 74.0 2017-12-29 17:00:26.17417 Springfield-Branson National Airport (SGF)
2017-08-21 07:52:00 78 90 75.0 2017-12-29 17:00:26.17417 Springfield-Branson National Airport (SGF)
2017-08-21 08:52:00 82 79 75.0 2017-12-29 17:00:26.17417 Springfield-Branson National Airport (SGF)
2017-08-21 09:52:00 84 70 73.0 2017-12-29 17:00:26.17417 Springfield-Branson National Airport (SGF)
2017-08-21 10:52:00 86 67 74.0 2017-12-29 17:00:26.17417 Springfield-Branson National Airport (SGF)
2017-08-21 11:52:00 85 70 74.0 2017-12-29 17:00:26.17417 Springfield-Branson National Airport (SGF)
2017-08-21 12:52:00 84 74 75.0 2017-12-29 17:00:26.17417 Springfield-Branson National Airport (SGF)
2017-08-21 13:52:00 88 63 74.0 2017-12-29 17:00:26.17417 Springfield-Branson National Airport (SGF)
2017-08-21 14:52:00 88 66 75.0 2017-12-29 17:00:26.17417 Springfield-Branson National Airport (SGF)
2017-08-21 15:52:00 88 63 74.0 2017-12-29 17:00:26.17417 Springfield-Branson National Airport (SGF)
2017-08-21 16:52:00 88 61 73.0 2017-12-29 17:00:26.17417 Springfield-Branson National Airport (SGF)
2017-08-21 17:52:00 85 72 75.0 2017-12-29 17:00:26.17417 Springfield-Branson National Airport (SGF)
2017-08-21 18:52:00 82 79 75.0 2017-12-29 17:00:26.17417 Springfield-Branson National Airport (SGF)
2017-08-21 19:52:00 81 79 74.0 2017-12-29 17:00:26.17417 Springfield-Branson National Airport (SGF)
2017-08-21 20:52:00 79 85 74.0 2017-12-29 17:00:26.17417 Springfield-Branson National Airport (SGF)
2017-08-21 21:52:00 77 90 74.0 2017-12-29 17:00:26.17417 Springfield-Branson National Airport (SGF)
2017-08-21 22:52:00 77 90 74.0 2017-12-29 17:00:26.17417 Springfield-Branson National Airport (SGF)
2017-08-21 23:52:00 77 90 74.0 2017-12-29 17:00:26.17417 Springfield-Branson National Airport (SGF)

A total of 24 rows are displayed.